createdAt,value
2022-09-14T00:01:34.617Z,2.73
2022-09-14T00:04:10.823Z,2.50
2022-09-14T00:06:37.963Z,2.47
2022-09-14T00:09:10.943Z,2.93
2022-09-14T00:11:38.038Z,2.73
2022-09-14T00:14:06.213Z,2.63
2022-09-14T00:16:37.114Z,2.77
2022-09-14T00:19:07.887Z,2.97
2022-09-14T00:21:37.730Z,3.57
2022-09-14T00:24:07.154Z,3.50
2022-09-14T00:26:34.499Z,3.13
2022-09-14T00:29:05.102Z,3.40
2022-09-14T00:31:35.514Z,3.63
2022-09-14T00:34:03.168Z,3.90
2022-09-14T00:36:31.783Z,3.83
2022-09-14T00:39:00.529Z,4.00
2022-09-14T00:41:32.437Z,3.83
2022-09-14T00:44:28.147Z,4.37
2022-09-14T00:46:58.623Z,4.70
2022-09-14T00:49:34.159Z,5.30
2022-09-14T00:52:19.371Z,4.87
2022-09-14T00:54:49.914Z,4.77
2022-09-14T00:57:18.458Z,5.27
2022-09-14T00:59:48.990Z,4.13
2022-09-14T01:02:16.915Z,3.10
2022-09-14T01:04:44.279Z,3.03
2022-09-14T01:07:47.923Z,3.10
2022-09-14T01:10:51.938Z,3.43
2022-09-14T01:13:57.360Z,3.30
2022-09-14T01:17:28.356Z,3.60
2022-09-14T01:20:22.270Z,4.10
2022-09-14T01:23:42.890Z,3.57
2022-09-14T01:26:33.718Z,3.67
2022-09-14T01:29:30.839Z,4.27
2022-09-14T01:32:26.193Z,4.20
2022-09-14T01:35:07.895Z,4.33
2022-09-14T01:38:03.862Z,5.03
2022-09-14T01:40:36.780Z,4.50
2022-09-14T01:43:36.676Z,5.03
2022-09-14T01:46:13.568Z,5.90
2022-09-14T01:49:03.168Z,5.67
2022-09-14T01:51:46.502Z,5.53
2022-09-14T01:54:34.252Z,6.50
2022-09-14T01:57:22.471Z,5.93
2022-09-14T01:59:54.494Z,7.53
2022-09-14T02:02:30.820Z,7.63
2022-09-14T02:05:07.647Z,6.80
2022-09-14T02:07:37.068Z,8.17
2022-09-14T02:10:08.451Z,7.93
2022-09-14T02:12:36.243Z,7.50
2022-09-14T02:15:04.820Z,8.83
2022-09-14T02:17:31.680Z,9.07
2022-09-14T02:20:02.125Z,8.50
2022-09-14T02:22:30.803Z,8.20
2022-09-14T02:24:58.281Z,9.50
2022-09-14T02:27:25.624Z,10.10
2022-09-14T02:29:53.065Z,9.43
2022-09-14T02:32:47.599Z,10.30
2022-09-14T02:35:32.010Z,8.30
2022-09-14T02:38:40.584Z,9.40
2022-09-14T02:41:41.986Z,7.47
2022-09-14T02:44:45.814Z,7.37
2022-09-14T02:47:23.895Z,6.43
2022-09-14T02:50:17.998Z,6.27
2022-09-14T02:53:01.116Z,6.07
2022-09-14T02:55:35.682Z,5.60
2022-09-14T02:58:10.210Z,6.17
2022-09-14T03:00:46.617Z,5.93
2022-09-14T03:03:17.488Z,6.10
2022-09-14T03:05:44.534Z,6.87
2022-09-14T03:08:12.054Z,6.07
2022-09-14T03:10:42.209Z,6.87
2022-09-14T03:13:09.043Z,7.10
2022-09-14T03:15:35.886Z,6.27
2022-09-14T03:18:02.622Z,7.10
2022-09-14T03:20:32.583Z,7.10
2022-09-14T03:23:00.699Z,6.80
2022-09-14T03:25:28.652Z,6.90
2022-09-14T03:27:59.947Z,5.67
2022-09-14T03:30:27.874Z,6.03
2022-09-14T03:32:54.830Z,6.53
2022-09-14T03:35:21.635Z,6.50
2022-09-14T03:37:48.415Z,6.30
2022-09-14T03:40:21.676Z,7.03
2022-09-14T03:42:50.819Z,7.37
2022-09-14T03:45:18.969Z,6.33
2022-09-14T03:47:46.819Z,6.50
2022-09-14T03:50:15.203Z,7.00
2022-09-14T03:52:42.067Z,6.87
2022-09-14T03:55:09.591Z,7.60
2022-09-14T03:57:36.403Z,7.80
2022-09-14T04:00:06.565Z,8.40
2022-09-14T04:02:33.490Z,8.67
2022-09-14T04:05:00.333Z,8.30
2022-09-14T04:07:27.163Z,7.87
2022-09-14T04:09:53.914Z,8.00
2022-09-14T04:12:20.664Z,7.43
2022-09-14T04:14:47.417Z,8.87
2022-09-14T04:17:14.168Z,8.10
2022-09-14T04:19:42.058Z,8.17
2022-09-14T04:22:09.023Z,8.33
2022-09-14T04:24:35.863Z,7.53
2022-09-14T04:27:02.768Z,8.73
2022-09-14T04:29:30.488Z,8.60
2022-09-14T04:31:57.949Z,6.80
2022-09-14T04:34:24.798Z,7.63
2022-09-14T04:36:51.635Z,7.30
2022-09-14T04:39:18.474Z,7.23
2022-09-14T04:41:45.273Z,8.17
2022-09-14T04:44:12.544Z,8.03
2022-09-14T04:46:46.167Z,7.37
2022-09-14T04:49:16.472Z,7.30
2022-09-14T04:51:43.213Z,8.50
2022-09-14T04:54:17.303Z,6.87
2022-09-14T04:56:44.960Z,7.10
2022-09-14T04:59:12.515Z,7.00
2022-09-14T05:01:47.369Z,6.90
2022-09-14T05:04:14.298Z,6.60
2022-09-14T05:06:42.745Z,7.10
2022-09-14T05:09:16.390Z,6.83
2022-09-14T05:11:44.112Z,7.20
2022-09-14T05:14:14.998Z,7.27
2022-09-14T05:16:43.957Z,6.87
2022-09-14T05:19:18.251Z,7.27
2022-09-14T05:21:45.668Z,7.00
2022-09-14T05:24:17.142Z,7.40
2022-09-14T05:26:45.115Z,6.70
2022-09-14T05:29:18.026Z,6.20
2022-09-14T05:31:45.590Z,6.87
2022-09-14T05:34:13.118Z,6.80
2022-09-14T05:36:40.800Z,7.50
2022-09-14T05:39:08.397Z,7.40
2022-09-14T05:41:35.368Z,6.90
2022-09-14T05:44:02.351Z,7.73
2022-09-14T05:46:30.289Z,6.90
2022-09-14T05:48:57.077Z,7.07
2022-09-14T05:51:26.335Z,7.73
2022-09-14T05:53:56.841Z,7.10
2022-09-14T05:56:28.027Z,6.90
2022-09-14T05:58:55.354Z,7.13
2022-09-14T06:01:25.725Z,7.50
2022-09-14T06:04:02.272Z,6.67
2022-09-14T06:06:31.045Z,7.10
2022-09-14T06:08:57.945Z,6.50
2022-09-14T06:11:28.539Z,7.40
2022-09-14T06:13:56.857Z,6.70
2022-09-14T06:16:25.908Z,7.40
2022-09-14T06:18:55.398Z,7.30
2022-09-14T06:21:22.570Z,6.17
2022-09-14T06:23:51.041Z,7.07
2022-09-14T06:26:17.980Z,6.90
2022-09-14T06:28:44.989Z,6.80
2022-09-14T06:31:14.453Z,7.33
2022-09-14T06:33:48.526Z,7.00
2022-09-14T06:36:19.607Z,7.07
2022-09-14T06:38:49.653Z,7.47
2022-09-14T06:41:20.340Z,7.80
2022-09-14T06:43:47.979Z,6.90
2022-09-14T06:46:21.007Z,7.13
2022-09-14T06:49:02.618Z,7.03
2022-09-14T06:51:39.727Z,7.83
2022-09-14T06:54:07.894Z,7.77
2022-09-14T06:56:39.182Z,6.97
2022-09-14T06:59:08.594Z,6.83
2022-09-14T07:01:36.215Z,7.27
2022-09-14T07:04:04.013Z,6.90
2022-09-14T07:06:38.822Z,7.30
2022-09-14T07:09:05.771Z,7.43
2022-09-14T07:11:33.295Z,7.40
2022-09-14T07:14:00.149Z,6.67
2022-09-14T07:16:28.209Z,7.27
2022-09-14T07:18:57.532Z,6.40
2022-09-14T07:21:25.550Z,6.33
2022-09-14T07:23:52.832Z,6.23
2022-09-14T07:26:25.834Z,5.40
2022-09-14T07:29:01.492Z,5.90
2022-09-14T07:31:45.355Z,4.93
2022-09-14T07:34:13.215Z,5.40
2022-09-14T07:36:41.011Z,5.17
2022-09-14T07:39:12.340Z,5.03
2022-09-14T07:41:39.182Z,5.70
2022-09-14T07:44:08.040Z,5.53
2022-09-14T07:46:41.594Z,5.37
2022-09-14T07:49:10.155Z,5.00
2022-09-14T07:51:38.218Z,4.10
2022-09-14T07:54:07.215Z,3.10
2022-09-14T07:56:34.992Z,2.60
2022-09-14T07:59:30.904Z,2.73
2022-09-14T08:01:50.308Z,2.70
2022-09-14T08:04:17.543Z,2.23
2022-09-14T08:06:44.338Z,2.50
2022-09-14T08:09:11.144Z,2.30
2022-09-14T08:11:38.524Z,2.30
2022-09-14T08:14:11.726Z,2.23
2022-09-14T08:16:40.434Z,2.20
2022-09-14T08:19:13.456Z,2.23
2022-09-14T08:21:45.676Z,2.10
2022-09-14T08:24:17.535Z,2.40
2022-09-14T08:26:44.893Z,1.93
2022-09-14T08:29:13.671Z,2.10
2022-09-14T08:31:40.994Z,2.07
2022-09-14T08:34:08.608Z,1.80
2022-09-14T08:36:40.105Z,2.10
2022-09-14T08:39:10.418Z,1.90
2022-09-14T08:41:51.748Z,1.90
2022-09-14T08:44:43.068Z,1.70
2022-09-14T08:47:34.190Z,1.90
2022-09-14T08:50:09.318Z,2.13
2022-09-14T08:52:37.341Z,1.80
2022-09-14T08:55:34.521Z,1.70
2022-09-14T08:58:09.701Z,1.77
2022-09-14T09:01:18.285Z,2.00
2022-09-14T09:04:00.454Z,1.67
2022-09-14T09:07:05.810Z,2.00
2022-09-14T09:09:47.577Z,1.73
2022-09-14T09:12:37.580Z,1.80
2022-09-14T09:15:34.205Z,1.85
2022-09-14T09:18:20.531Z,2.03
2022-09-14T09:21:02.888Z,1.70
2022-09-14T09:23:33.070Z,1.80
2022-09-14T09:26:31.697Z,1.90
2022-09-14T09:29:01.514Z,1.70
2022-09-14T09:31:35.798Z,1.85
2022-09-14T09:34:03.974Z,1.70
2022-09-14T09:36:37.199Z,1.80
2022-09-14T09:39:05.530Z,2.08
2022-09-14T09:41:53.098Z,2.00
2022-09-14T09:44:20.217Z,1.75
2022-09-14T09:46:58.489Z,1.52
2022-09-14T09:49:35.327Z,1.80
2022-09-14T09:52:15.555Z,1.73
2022-09-14T09:54:50.112Z,1.60
2022-09-14T09:57:34.202Z,1.63
2022-09-14T10:00:22.178Z,1.83
2022-09-14T10:02:49.626Z,1.20
2022-09-14T10:05:31.577Z,1.63
2022-09-14T10:08:00.883Z,1.42
2022-09-14T10:10:39.174Z,1.75
2022-09-14T10:13:26.111Z,1.52
2022-09-14T10:15:54.027Z,1.73
2022-09-14T10:18:22.277Z,2.20
2022-09-14T10:20:54.812Z,1.70
2022-09-14T10:23:26.606Z,1.33
2022-09-14T10:26:16.054Z,1.30
2022-09-14T10:28:46.314Z,1.42
2022-09-14T10:31:26.120Z,1.60
2022-09-14T10:33:57.043Z,1.60
2022-09-14T10:36:38.040Z,1.70
2022-09-14T10:39:34.066Z,1.65
2022-09-14T10:42:17.623Z,1.52
2022-09-14T10:45:03.482Z,1.58
2022-09-14T10:48:12.903Z,1.40
2022-09-14T10:51:02.111Z,1.55
2022-09-14T10:53:50.211Z,1.25
2022-09-14T10:56:27.054Z,1.40
2022-09-14T11:00:09.772Z,1.42
2022-09-14T11:03:13.502Z,1.50
2022-09-14T11:06:20.774Z,1.30
2022-09-14T11:09:03.330Z,1.48
2022-09-14T11:11:41.617Z,1.70
2022-09-14T11:14:14.099Z,1.70
2022-09-14T11:17:08.520Z,1.50
2022-09-14T11:20:15.478Z,1.25
2022-09-14T11:23:14.533Z,1.45
2022-09-14T11:25:59.966Z,1.40
2022-09-14T11:29:06.582Z,1.45
2022-09-14T11:32:10.175Z,1.58
2022-09-14T11:35:01.092Z,1.60
2022-09-14T11:37:50.734Z,1.50
2022-09-14T11:40:32.993Z,1.30
2022-09-14T11:43:19.054Z,1.58
2022-09-14T11:46:10.274Z,1.48
2022-09-14T11:49:11.286Z,1.90
2022-09-14T11:52:08.163Z,1.42
2022-09-14T11:54:41.512Z,1.75
2022-09-14T11:57:18.616Z,1.52
2022-09-14T11:59:55.698Z,1.38
2022-09-14T12:02:25.724Z,1.75
2022-09-14T12:05:04.726Z,1.40
2022-09-14T12:08:01.470Z,1.55
2022-09-14T12:10:29.603Z,1.48
2022-09-14T12:13:06.827Z,1.40
2022-09-14T12:15:41.003Z,1.70
2022-09-14T12:18:07.713Z,1.35
2022-09-14T12:21:01.613Z,1.33
2022-09-14T12:23:41.947Z,1.48
2022-09-14T12:26:13.902Z,2.00
2022-09-14T12:28:48.361Z,1.40
2022-09-14T12:31:32.732Z,1.65
2022-09-14T12:34:16.233Z,1.35
2022-09-14T12:36:42.970Z,1.60
2022-09-14T12:39:34.219Z,1.60
2022-09-14T12:42:26.723Z,1.80
2022-09-14T12:44:54.015Z,1.42
2022-09-14T12:47:28.470Z,1.88
2022-09-14T12:50:17.664Z,1.45
2022-09-14T12:53:34.753Z,2.15
2022-09-14T12:56:39.243Z,2.00
2022-09-14T12:59:31.267Z,1.90
2022-09-14T13:02:25.570Z,1.80
2022-09-14T13:04:55.408Z,1.65
2022-09-14T13:07:23.163Z,1.98
2022-09-14T13:09:54.810Z,1.67
2022-09-14T13:12:41.602Z,1.67
2022-09-14T13:15:28.620Z,1.63
2022-09-14T13:18:05.143Z,1.48
2022-09-14T13:20:35.386Z,1.90
2022-09-14T13:23:03.252Z,1.70
2022-09-14T13:25:37.421Z,2.10
2022-09-14T13:28:11.260Z,1.90
2022-09-14T13:30:38.349Z,1.85
2022-09-14T13:33:05.252Z,1.50
2022-09-14T13:35:45.976Z,1.83
2022-09-14T13:38:22.224Z,1.75
2022-09-14T13:40:51.637Z,1.80
2022-09-14T13:43:21.011Z,1.90
2022-09-14T13:45:50.036Z,1.85
2022-09-14T13:48:20.059Z,1.60
2022-09-14T13:50:51.773Z,1.60
2022-09-14T13:53:48.952Z,1.67
2022-09-14T13:56:36.089Z,1.83
2022-09-14T13:59:08.591Z,1.75
2022-09-14T14:01:40.456Z,2.00
2022-09-14T14:04:35.926Z,2.00
2022-09-14T14:07:12.845Z,2.00
2022-09-14T14:09:50.594Z,1.65
2022-09-14T14:12:39.252Z,1.95
2022-09-14T14:15:11.050Z,1.75
2022-09-14T14:17:40.623Z,2.10
2022-09-14T14:20:33.387Z,2.13
2022-09-14T14:23:08.582Z,2.17
2022-09-14T14:25:44.827Z,2.03
2022-09-14T14:28:22.534Z,2.15
2022-09-14T14:30:50.435Z,2.03
2022-09-14T14:33:19.131Z,1.90
2022-09-14T14:35:48.390Z,1.97
2022-09-14T14:38:16.131Z,2.20
2022-09-14T14:40:43.936Z,2.07
2022-09-14T14:43:21.179Z,2.37
2022-09-14T14:45:48.811Z,2.20
2022-09-14T14:48:15.727Z,2.37
2022-09-14T14:50:42.511Z,2.00
2022-09-14T14:53:09.274Z,2.10
2022-09-14T14:55:37.456Z,2.20
2022-09-14T14:58:08.591Z,2.40
2022-09-14T15:00:38.324Z,2.00
2022-09-14T15:03:05.215Z,2.33
2022-09-14T15:05:32.280Z,1.00
2022-09-14T15:07:59.145Z,1.00
2022-09-14T15:10:29.075Z,1.03
2022-09-14T15:12:55.903Z,0.80
2022-09-14T15:15:26.278Z,0.93
2022-09-14T15:17:54.232Z,0.83
2022-09-14T15:20:22.042Z,0.80
2022-09-14T15:22:49.560Z,0.80
2022-09-14T15:25:18.732Z,1.20
2022-09-14T15:27:45.556Z,0.70
2022-09-14T15:30:13.963Z,1.00
2022-09-14T15:32:41.586Z,0.77
2022-09-14T15:35:13.813Z,1.00
2022-09-14T15:37:41.472Z,1.00
2022-09-14T15:40:09.773Z,1.10
2022-09-14T15:42:36.661Z,1.03
2022-09-14T15:45:04.494Z,1.30
2022-09-14T15:47:36.082Z,1.03
2022-09-14T15:50:04.452Z,1.70
2022-09-14T15:52:31.280Z,1.27
2022-09-14T15:54:58.033Z,1.40
2022-09-14T15:57:24.996Z,1.27
2022-09-14T15:59:54.418Z,1.30
2022-09-14T16:02:21.260Z,1.77
2022-09-14T16:04:48.052Z,1.37
2022-09-14T16:07:15.051Z,1.30
2022-09-14T16:09:42.391Z,1.70
2022-09-14T16:12:11.384Z,1.90
2022-09-14T16:14:38.314Z,1.73
2022-09-14T16:17:08.128Z,1.97
2022-09-14T16:19:35.102Z,1.50
2022-09-14T16:22:01.887Z,1.60
2022-09-14T16:24:29.064Z,1.77
2022-09-14T16:26:57.721Z,1.90
2022-09-14T16:29:25.439Z,1.80
2022-09-14T16:31:52.863Z,1.70
2022-09-14T16:34:26.434Z,1.73
2022-09-14T16:36:53.543Z,1.77
2022-09-14T16:39:23.771Z,1.80
2022-09-14T16:41:51.516Z,1.53
2022-09-14T16:44:21.561Z,2.17
2022-09-14T16:46:51.543Z,1.53
2022-09-14T16:49:21.343Z,1.90
2022-09-14T16:51:51.707Z,2.17
2022-09-14T16:54:21.616Z,1.93
2022-09-14T16:56:48.853Z,1.70
2022-09-14T16:59:17.458Z,2.10
2022-09-14T17:01:50.789Z,2.17
2022-09-14T17:04:21.554Z,2.10
2022-09-14T17:06:50.311Z,2.10
2022-09-14T17:09:21.633Z,1.77
2022-09-14T17:11:48.919Z,1.87
2022-09-14T17:14:18.850Z,1.87
2022-09-14T17:16:45.850Z,2.00
2022-09-14T17:19:13.390Z,1.70
2022-09-14T17:21:42.704Z,2.10
2022-09-14T17:24:10.752Z,1.80
2022-09-14T17:26:38.357Z,2.10
2022-09-14T17:29:06.702Z,1.97
2022-09-14T17:31:37.967Z,2.17
2022-09-14T17:34:07.229Z,1.80
2022-09-14T17:36:34.501Z,1.80
2022-09-14T17:39:07.890Z,2.20
2022-09-14T17:41:38.502Z,2.30
2022-09-14T17:44:07.276Z,2.07
2022-09-14T17:46:34.570Z,2.20
2022-09-14T17:49:04.622Z,2.33
2022-09-14T17:51:34.149Z,2.00
2022-09-14T17:54:01.877Z,2.03
2022-09-14T17:56:29.870Z,2.20
2022-09-14T17:59:06.763Z,1.93
2022-09-14T18:01:34.516Z,1.90
2022-09-14T18:04:11.590Z,2.27
2022-09-14T18:06:42.621Z,1.93
2022-09-14T18:09:15.326Z,2.00
2022-09-14T18:11:42.763Z,1.90
2022-09-14T18:14:12.651Z,2.17
2022-09-14T18:16:40.449Z,2.30
2022-09-14T18:19:07.533Z,2.50
2022-09-14T18:21:34.527Z,2.33
2022-09-14T18:24:01.503Z,1.87
2022-09-14T18:26:28.380Z,2.10
2022-09-14T18:28:58.895Z,2.70
2022-09-14T18:31:26.714Z,2.30
2022-09-14T18:34:00.142Z,2.23
2022-09-14T18:36:29.432Z,2.80
2022-09-14T18:38:58.149Z,2.20
2022-09-14T18:41:25.176Z,2.23
2022-09-14T18:43:53.403Z,2.33
2022-09-14T18:46:25.757Z,2.20
2022-09-14T18:48:57.727Z,2.20
2022-09-14T18:51:25.306Z,2.33
2022-09-14T18:54:03.154Z,2.60
2022-09-14T18:56:33.152Z,2.60
2022-09-14T18:59:02.031Z,2.37
2022-09-14T19:01:28.965Z,2.30
2022-09-14T19:03:56.444Z,2.23
2022-09-14T19:06:23.439Z,2.43
2022-09-14T19:08:50.760Z,2.40
2022-09-14T19:11:21.506Z,2.43
2022-09-14T19:13:50.737Z,2.37
2022-09-14T19:16:19.282Z,2.37
2022-09-14T19:18:48.573Z,2.40
2022-09-14T19:21:28.361Z,2.30
2022-09-14T19:24:07.930Z,2.40
2022-09-14T19:26:44.761Z,2.30
2022-09-14T19:29:14.018Z,2.47
2022-09-14T19:31:40.938Z,2.30
2022-09-14T19:34:07.808Z,2.30
2022-09-14T19:36:35.086Z,2.27
2022-09-14T19:39:02.988Z,2.20
2022-09-14T19:41:32.838Z,2.43
2022-09-14T19:44:01.168Z,2.27
2022-09-14T19:46:28.755Z,2.10
2022-09-14T19:48:55.898Z,2.23
2022-09-14T19:51:26.353Z,2.03
2022-09-14T19:53:56.444Z,2.27
2022-09-14T19:56:26.562Z,2.30
2022-09-14T19:58:56.732Z,2.60
2022-09-14T20:01:26.161Z,2.10
2022-09-14T20:03:53.523Z,2.60
2022-09-14T20:06:25.972Z,2.67
2022-09-14T20:08:56.873Z,2.43
2022-09-14T20:11:26.650Z,2.43
2022-09-14T20:13:55.737Z,2.33
2022-09-14T20:16:29.845Z,2.50
2022-09-14T20:18:59.422Z,2.40
2022-09-14T20:21:27.929Z,2.40
2022-09-14T20:24:17.454Z,2.90
2022-09-14T20:26:49.750Z,2.30
2022-09-14T20:29:19.258Z,2.50
2022-09-14T20:31:47.178Z,2.57
2022-09-14T20:34:16.513Z,2.47
2022-09-14T20:36:43.758Z,2.60
2022-09-14T20:39:10.892Z,2.67
2022-09-14T20:41:37.792Z,2.73
2022-09-14T20:44:05.580Z,3.00
2022-09-14T20:46:39.516Z,2.50
2022-09-14T20:49:13.143Z,2.93
2022-09-14T20:51:41.079Z,2.57
2022-09-14T20:54:12.254Z,2.73
2022-09-14T20:56:39.453Z,2.43
2022-09-14T20:59:11.092Z,2.43
2022-09-14T21:01:41.192Z,2.40
2022-09-14T21:04:21.005Z,2.33
2022-09-14T21:06:52.577Z,3.07
2022-09-14T21:09:22.627Z,3.23
2022-09-14T21:11:49.526Z,3.20
2022-09-14T21:14:17.971Z,3.00
2022-09-14T21:16:49.183Z,3.83
2022-09-14T21:19:21.328Z,2.93
2022-09-14T21:21:50.050Z,3.63
2022-09-14T21:24:19.279Z,5.70
2022-09-14T21:26:46.131Z,4.47
2022-09-14T21:29:18.099Z,4.50
2022-09-14T21:31:45.204Z,6.07
2022-09-14T21:34:12.746Z,11.53
2022-09-14T21:36:57.483Z,4.83
2022-09-14T21:39:26.954Z,8.50
2022-09-14T21:41:59.079Z,4.83
2022-09-14T21:44:31.423Z,4.53
2022-09-14T21:46:58.523Z,6.13
2022-09-14T21:49:25.354Z,5.70
2022-09-14T21:51:52.252Z,5.13
2022-09-14T21:54:20.294Z,5.33
2022-09-14T21:56:47.520Z,4.70
2022-09-14T21:59:18.154Z,4.33
2022-09-14T22:01:45.593Z,4.70
2022-09-14T22:04:24.518Z,4.80
2022-09-14T22:06:53.111Z,4.17
2022-09-14T22:09:24.768Z,4.40
2022-09-14T22:11:52.357Z,4.40
2022-09-14T22:14:23.902Z,4.43
2022-09-14T22:16:51.306Z,4.13
2022-09-14T22:19:23.644Z,4.23
2022-09-14T22:21:51.356Z,5.23
2022-09-14T22:24:22.788Z,4.67
2022-09-14T22:26:50.381Z,4.80
2022-09-14T22:29:18.115Z,4.43
2022-09-14T22:31:45.826Z,4.30
2022-09-14T22:34:13.279Z,3.80
2022-09-14T22:36:40.309Z,4.23
2022-09-14T22:39:08.227Z,4.07
2022-09-14T22:41:35.899Z,4.10
2022-09-14T22:44:04.011Z,4.40
2022-09-14T22:46:30.890Z,4.60
2022-09-14T22:48:57.768Z,5.07
2022-09-14T22:51:27.570Z,4.37
2022-09-14T22:53:55.127Z,4.13
2022-09-14T22:56:26.303Z,4.27
2022-09-14T22:58:53.585Z,4.73
2022-09-14T23:01:24.972Z,4.23
2022-09-14T23:04:00.858Z,4.10
2022-09-14T23:06:51.587Z,4.60
2022-09-14T23:09:21.866Z,4.00
2022-09-14T23:11:49.140Z,3.80
2022-09-14T23:14:17.065Z,4.07
2022-09-14T23:16:47.010Z,3.87
2022-09-14T23:19:16.797Z,3.50
2022-09-14T23:21:44.117Z,3.70
2022-09-14T23:24:11.286Z,3.73
2022-09-14T23:26:38.492Z,3.47
2022-09-14T23:29:09.143Z,3.83
2022-09-14T23:31:35.994Z,4.03
2022-09-14T23:34:04.871Z,3.83
2022-09-14T23:36:32.747Z,3.50
2022-09-14T23:38:59.599Z,3.43
2022-09-14T23:41:28.051Z,3.20
2022-09-14T23:43:55.264Z,3.00
2022-09-14T23:46:23.169Z,3.37
2022-09-14T23:48:50.420Z,2.80
2022-09-14T23:51:17.718Z,2.90
2022-09-14T23:53:44.854Z,2.80
2022-09-14T23:56:12.410Z,2.30
2022-09-14T23:58:41.352Z,2.87
